Time;durP1;ratioP1;P1;durP2;ratioP2;P2;SDS_P1;SDS_P2;PMS_P1;PMS_P2;Temp;Humidity;BMP_temperature;BMP_pressure;BME280_temperature;BME280_humidity;BME280_pressure;Samples;Min_cycle;Max_cycle;Signal;HPM_P1;HPM_P2
2022/02/26 00:00:10;;;;;;;9.15;1.90;;;;;;;;;;5035408;28;20108;-76
2022/02/26 00:02:35;;;;;;;18.40;2.17;;;;;;;;;;5035082;28;20029;-79
2022/02/26 00:05:00;;;;;;;12.63;2.28;;;;;;;;;;5033597;28;20108;-78
2022/02/26 00:07:26;;;;;;;7.95;1.90;;;;;;;;;;5034895;28;20083;-78
2022/02/26 00:09:51;;;;;;;12.15;2.58;;;;;;;;;;5034883;28;20102;-78
2022/02/26 00:12:16;;;;;;;12.95;2.70;;;;;;;;;;5034490;28;20442;-79
2022/02/26 00:14:41;;;;;;;8.23;2.25;;;;;;;;;;5034812;28;20520;-78
2022/02/26 00:17:07;;;;;;;10.57;2.30;;;;;;;;;;5034776;28;20462;-78
2022/02/26 00:19:33;;;;;;;15.43;2.70;;;;;;;;;;5034761;28;20018;-78
2022/02/26 00:21:58;;;;;;;11.20;2.40;;;;;;;;;;5034253;28;20490;-78
2022/02/26 00:24:24;;;;;;;12.77;3.40;;;;;;;;;;5035386;28;20026;-78
2022/02/26 00:26:50;;;;;;;14.02;2.33;;;;;;;;;;5033875;28;20461;-78
2022/02/26 00:29:16;;;;;;;9.40;1.95;;;;;;;;;;5034620;28;20025;-78
2022/02/26 00:31:41;;;;;;;10.88;2.10;;;;;;;;;;5034547;28;20021;-79
2022/02/26 00:34:07;;;;;;;10.68;1.65;;;;;;;;;;5034219;28;20045;-78
2022/02/26 00:36:32;;;;;;;4.20;1.73;;;;;;;;;;5034371;28;20014;-77
2022/02/26 00:38:57;;;;;;;12.88;2.03;;;;;;;;;;5033374;28;20021;-77
2022/02/26 00:41:24;;;;;;;10.80;1.77;;;;;;;;;;5034240;28;20104;-78
2022/02/26 00:43:50;;;;;;;13.95;1.88;;;;;;;;;;5033924;28;20021;-78
2022/02/26 00:46:15;;;;;;;14.88;1.92;;;;;;;;;;5034340;28;20075;-79
2022/02/26 00:51:24;;;;;;;6.38;1.77;;;;;;;;;;5034223;28;20465;-78
2022/02/26 00:53:49;;;;;;;17.98;2.92;;;;;;;;;;5034120;28;20104;-79
2022/02/26 00:56:14;;;;;;;12.05;2.83;;;;;;;;;;5034333;28;20026;-78
2022/02/26 00:58:39;;;;;;;16.10;2.60;;;;;;;;;;5034214;28;20017;-78
2022/02/26 01:01:05;;;;;;;13.40;1.92;;;;;;;;;;5034151;28;20480;-79
2022/02/26 01:03:30;;;;;;;10.07;2.35;;;;;;;;;;5034030;28;20462;-77
2022/02/26 01:05:55;;;;;;;12.77;1.92;;;;;;;;;;5034855;28;20056;-78
2022/02/26 01:08:20;;;;;;;13.68;2.53;;;;;;;;;;5034442;28;20014;-77
2022/02/26 01:10:46;;;;;;;12.82;2.00;;;;;;;;;;5032589;28;20028;-77
2022/02/26 01:13:11;;;;;;;13.18;2.08;;;;;;;;;;5033707;28;20025;-79
2022/02/26 01:15:36;;;;;;;13.02;2.92;;;;;;;;;;5032450;28;20022;-78
2022/02/26 01:18:01;;;;;;;16.63;1.77;;;;;;;;;;5033753;28;20025;-79
2022/02/26 01:20:26;;;;;;;10.00;2.25;;;;;;;;;;5033651;28;20024;-79
2022/02/26 01:22:52;;;;;;;13.40;2.08;;;;;;;;;;5033181;28;20025;-78
2022/02/26 01:25:17;;;;;;;9.77;1.63;;;;;;;;;;5032242;28;20063;-78
2022/02/26 01:27:42;;;;;;;12.75;1.88;;;;;;;;;;5033447;28;20064;-78
2022/02/26 01:30:08;;;;;;;17.73;2.03;;;;;;;;;;5033627;28;20029;-79
2022/02/26 01:32:35;;;;;;;8.65;1.40;;;;;;;;;;5033042;28;20025;-78
2022/02/26 01:35:00;;;;;;;9.68;2.03;;;;;;;;;;5033445;28;20037;-78
2022/02/26 01:37:25;;;;;;;15.98;2.78;;;;;;;;;;5032214;28;20112;-79
2022/02/26 01:39:50;;;;;;;8.45;1.95;;;;;;;;;;5032563;28;20022;-79
2022/02/26 01:42:17;;;;;;;10.70;1.83;;;;;;;;;;5031442;28;20509;-78
2022/02/26 01:44:49;;;;;;;9.25;2.08;;;;;;;;;;5033156;28;20013;-79
2022/02/26 01:47:14;;;;;;;13.02;1.90;;;;;;;;;;5033117;28;20018;-77
2022/02/26 01:49:39;;;;;;;12.38;2.08;;;;;;;;;;5033159;28;20144;-79
2022/02/26 01:52:05;;;;;;;8.65;1.92;;;;;;;;;;5031524;28;20120;-78
2022/02/26 01:54:31;;;;;;;11.88;2.05;;;;;;;;;;5031633;28;20029;-78
2022/02/26 01:56:56;;;;;;;8.18;1.58;;;;;;;;;;5032803;28;20156;-79
2022/02/26 01:59:21;;;;;;;17.02;2.38;;;;;;;;;;5032862;28;20055;-78
2022/02/26 02:01:46;;;;;;;17.10;2.03;;;;;;;;;;5032458;28;20388;-79
2022/02/26 02:04:14;;;;;;;11.50;2.13;;;;;;;;;;5031370;28;20384;-77
2022/02/26 02:06:39;;;;;;;11.98;2.10;;;;;;;;;;5032803;28;20017;-79
2022/02/26 02:09:05;;;;;;;11.57;2.17;;;;;;;;;;5032945;28;20023;-78
2022/02/26 02:11:33;;;;;;;11.43;1.98;;;;;;;;;;5033261;28;20030;-77
2022/02/26 02:13:58;;;;;;;9.25;2.00;;;;;;;;;;5033385;28;20037;-78
2022/02/26 02:16:23;;;;;;;14.05;2.53;;;;;;;;;;5032502;28;20029;-77
2022/02/26 02:18:48;;;;;;;14.27;2.85;;;;;;;;;;5032484;28;20465;-78
2022/02/26 02:21:14;;;;;;;13.40;2.67;;;;;;;;;;5032288;28;20018;-78
2022/02/26 02:23:40;;;;;;;19.30;2.38;;;;;;;;;;5032156;28;20025;-78
2022/02/26 02:26:06;;;;;;;7.53;2.10;;;;;;;;;;5031530;28;20499;-77
2022/02/26 02:28:31;;;;;;;16.08;2.78;;;;;;;;;;5031035;28;20049;-78
2022/02/26 02:30:56;;;;;;;15.27;2.20;;;;;;;;;;5033026;28;20461;-78
2022/02/26 02:33:21;;;;;;;10.77;1.52;;;;;;;;;;5032448;28;20037;-79
2022/02/26 02:35:46;;;;;;;14.75;2.30;;;;;;;;;;5032582;28;20018;-77
2022/02/26 02:38:12;;;;;;;14.15;3.65;;;;;;;;;;5032705;28;20045;-78
2022/02/26 02:40:38;;;;;;;12.88;2.40;;;;;;;;;;5032290;28;20017;-78
2022/02/26 02:43:05;;;;;;;16.85;2.85;;;;;;;;;;5031876;28;20029;-78
2022/02/26 02:45:30;;;;;;;14.90;2.30;;;;;;;;;;5032388;28;20068;-78
2022/02/26 02:47:56;;;;;;;9.85;1.80;;;;;;;;;;5032101;28;20021;-78
2022/02/26 02:50:21;;;;;;;10.23;2.40;;;;;;;;;;5032242;28;20018;-78
2022/02/26 02:52:47;;;;;;;15.20;2.03;;;;;;;;;;5030984;28;20480;-79
2022/02/26 02:55:14;;;;;;;15.15;2.55;;;;;;;;;;5032589;28;20109;-79
2022/02/26 02:57:40;;;;;;;6.30;1.90;;;;;;;;;;5031006;28;20021;-78
2022/02/26 03:00:06;;;;;;;15.38;1.90;;;;;;;;;;5032383;28;20021;-78
2022/02/26 03:02:32;;;;;;;15.07;3.33;;;;;;;;;;5032006;28;20079;-78
2022/02/26 03:04:57;;;;;;;22.30;2.10;;;;;;;;;;5032217;28;20018;-78
2022/02/26 03:07:22;;;;;;;16.00;1.88;;;;;;;;;;5032031;28;20029;-78
2022/02/26 03:09:47;;;;;;;13.10;1.88;;;;;;;;;;5032415;28;20469;-79
2022/02/26 03:12:12;;;;;;;10.60;2.10;;;;;;;;;;5032335;28;20037;-78
2022/02/26 03:14:38;;;;;;;14.45;2.00;;;;;;;;;;5032591;28;20017;-77
2022/02/26 03:17:03;;;;;;;14.95;2.65;;;;;;;;;;5031409;28;20171;-78
2022/02/26 03:19:28;;;;;;;20.08;3.95;;;;;;;;;;5033518;28;20499;-77
2022/02/26 03:21:53;;;;;;;16.60;2.10;;;;;;;;;;5031972;28;20022;-77
2022/02/26 03:24:18;;;;;;;16.92;2.10;;;;;;;;;;5031880;28;20022;-77
2022/02/26 03:26:44;;;;;;;13.52;1.95;;;;;;;;;;5031711;28;20025;-80
2022/02/26 03:29:10;;;;;;;13.23;1.92;;;;;;;;;;5031891;28;20040;-79
2022/02/26 03:31:35;;;;;;;20.15;2.15;;;;;;;;;;5030355;28;20072;-79
2022/02/26 03:34:00;;;;;;;14.30;2.45;;;;;;;;;;5031530;28;20036;-78
2022/02/26 03:36:27;;;;;;;12.32;1.88;;;;;;;;;;5031868;28;20049;-78
2022/02/26 03:38:52;;;;;;;13.88;1.77;;;;;;;;;;5032480;28;20094;-78
2022/02/26 03:41:18;;;;;;;14.68;1.92;;;;;;;;;;5033130;28;20396;-79
2022/02/26 03:43:43;;;;;;;13.93;1.95;;;;;;;;;;5031719;28;20104;-78
2022/02/26 03:46:08;;;;;;;12.27;2.38;;;;;;;;;;5032076;28;20462;-77
2022/02/26 03:48:33;;;;;;;9.38;1.98;;;;;;;;;;5032015;28;20491;-77
2022/02/26 03:51:04;;;;;;;16.05;1.88;;;;;;;;;;5031732;28;20021;-78
2022/02/26 03:53:30;;;;;;;9.63;1.40;;;;;;;;;;5033384;28;20014;-78
2022/02/26 03:55:55;;;;;;;12.10;1.95;;;;;;;;;;5033703;28;20026;-79
2022/02/26 03:58:20;;;;;;;14.45;2.13;;;;;;;;;;5032926;28;20049;-78
2022/02/26 04:00:45;;;;;;;14.05;1.75;;;;;;;;;;5033725;28;20043;-79
2022/02/26 04:03:10;;;;;;;14.00;2.30;;;;;;;;;;5036163;28;20151;-77
2022/02/26 04:05:36;;;;;;;13.38;1.77;;;;;;;;;;5035785;28;20072;-79
2022/02/26 04:08:01;;;;;;;10.93;1.98;;;;;;;;;;5036544;28;20021;-79
2022/02/26 04:10:26;;;;;;;18.95;2.70;;;;;;;;;;5035166;28;20022;-77
2022/02/26 04:12:51;;;;;;;17.42;2.28;;;;;;;;;;5036169;28;20388;-78
2022/02/26 04:15:16;;;;;;;15.68;2.40;;;;;;;;;;5036307;28;20029;-77
2022/02/26 04:17:41;;;;;;;13.40;2.03;;;;;;;;;;5036422;28;20101;-77
2022/02/26 04:20:07;;;;;;;14.82;2.05;;;;;;;;;;5035932;28;20381;-77
2022/02/26 04:22:32;;;;;;;19.50;2.85;;;;;;;;;;5035481;28;20018;-77
2022/02/26 04:24:57;;;;;;;16.00;2.30;;;;;;;;;;5035980;28;20517;-79
2022/02/26 04:27:22;;;;;;;13.85;1.70;;;;;;;;;;5036033;28;20542;-78
2022/02/26 04:29:48;;;;;;;14.45;2.30;;;;;;;;;;5036108;28;20014;-77
2022/02/26 04:32:13;;;;;;;13.85;1.73;;;;;;;;;;5036078;28;20120;-78
2022/02/26 04:34:39;;;;;;;20.60;2.35;;;;;;;;;;5035730;28;20025;-78
2022/02/26 04:37:04;;;;;;;15.98;2.40;;;;;;;;;;5034482;28;20025;-78
2022/02/26 04:39:29;;;;;;;8.07;1.90;;;;;;;;;;5035350;28;20083;-77
2022/02/26 04:41:54;;;;;;;14.40;2.30;;;;;;;;;;5033854;28;20515;-77
2022/02/26 04:44:20;;;;;;;13.25;2.72;;;;;;;;;;5036424;28;20017;-78
2022/02/26 04:46:45;;;;;;;20.63;2.80;;;;;;;;;;5035102;28;20021;-79
2022/02/26 04:49:10;;;;;;;17.08;2.60;;;;;;;;;;5040327;28;20029;-77
2022/02/26 04:51:37;;;;;;;14.73;2.85;;;;;;;;;;5038172;28;20064;-78
2022/02/26 04:54:03;;;;;;;23.98;3.03;;;;;;;;;;5037252;28;20030;-76
2022/02/26 04:56:28;;;;;;;23.42;3.42;;;;;;;;;;5038360;28;20101;-79
2022/02/26 04:58:53;;;;;;;17.50;2.58;;;;;;;;;;5036329;28;20032;-78
2022/02/26 05:01:18;;;;;;;13.93;2.08;;;;;;;;;;5038193;28;20088;-79
2022/02/26 05:03:44;;;;;;;18.83;2.38;;;;;;;;;;5035173;28;20024;-77
2022/02/26 05:06:09;;;;;;;12.75;2.75;;;;;;;;;;5035223;28;20461;-77
2022/02/26 05:08:34;;;;;;;19.30;2.35;;;;;;;;;;5034855;28;20025;-79
2022/02/26 05:10:59;;;;;;;16.96;2.62;;;;;;;;;;5034646;28;20020;-77
2022/02/26 05:13:25;;;;;;;24.48;2.40;;;;;;;;;;5034368;28;20070;-78
2022/02/26 05:15:50;;;;;;;16.42;2.20;;;;;;;;;;5034597;28;20496;-79
2022/02/26 05:18:15;;;;;;;17.70;2.28;;;;;;;;;;5034547;28;20009;-77
2022/02/26 05:20:40;;;;;;;16.73;2.33;;;;;;;;;;5034037;28;20015;-77
2022/02/26 05:23:06;;;;;;;11.18;2.45;;;;;;;;;;5033509;28;20483;-78
2022/02/26 05:25:31;;;;;;;11.25;1.75;;;;;;;;;;5034107;28;20010;-77
2022/02/26 05:27:56;;;;;;;11.05;2.35;;;;;;;;;;5045257;23;20156;-90
2022/02/26 05:30:22;;;;;;;12.85;2.22;;;;;;;;;;5015621;28;20478;-90
2022/02/26 05:32:47;;;;;;;13.48;1.75;;;;;;;;;;5015904;28;20025;-88
2022/02/26 05:35:12;;;;;;;12.70;2.40;;;;;;;;;;5016253;28;20026;-90
2022/02/26 05:37:38;;;;;;;16.50;2.08;;;;;;;;;;5015398;28;20465;-91
2022/02/26 05:40:03;;;;;;;10.23;2.25;;;;;;;;;;5016364;28;20032;-92
2022/02/26 05:42:29;;;;;;;13.70;2.45;;;;;;;;;;5017312;28;20049;-90
2022/02/26 05:44:54;;;;;;;20.02;2.67;;;;;;;;;;5019963;28;20025;-90
2022/02/26 05:47:19;;;;;;;17.08;2.65;;;;;;;;;;5020586;28;20018;-90
2022/02/26 05:49:45;;;;;;;26.20;3.45;;;;;;;;;;5021954;28;20065;-89
2022/02/26 05:52:10;;;;;;;22.02;2.80;;;;;;;;;;5024996;28;20018;-90
2022/02/26 05:54:38;;;;;;;16.13;2.08;;;;;;;;;;5023837;28;20021;-91
2022/02/26 05:57:03;;;;;;;18.08;2.17;;;;;;;;;;5022508;28;20025;-90
2022/02/26 05:59:28;;;;;;;26.02;2.72;;;;;;;;;;5027157;28;20013;-89
2022/02/26 06:01:54;;;;;;;24.45;3.28;;;;;;;;;;5029738;28;20026;-92
2022/02/26 06:04:19;;;;;;;11.27;2.45;;;;;;;;;;5024247;28;20010;-92
2022/02/26 06:06:44;;;;;;;17.98;3.40;;;;;;;;;;5026157;28;20022;-89
2022/02/26 06:09:10;;;;;;;20.05;3.47;;;;;;;;;;5025707;28;20533;-92
2022/02/26 06:11:35;;;;;;;16.92;2.58;;;;;;;;;;5024819;28;20049;-92
2022/02/26 06:14:00;;;;;;;18.63;2.70;;;;;;;;;;5029873;28;20026;-86
2022/02/26 06:16:25;;;;;;;12.60;2.53;;;;;;;;;;5031866;28;20022;-88
2022/02/26 06:18:51;;;;;;;20.38;2.63;;;;;;;;;;5030626;28;20343;-93
2022/02/26 06:21:16;;;;;;;24.10;2.80;;;;;;;;;;5030388;28;20033;-90
2022/02/26 06:23:41;;;;;;;11.43;2.28;;;;;;;;;;5030726;28;20021;-92
2022/02/26 06:26:06;;;;;;;19.23;2.40;;;;;;;;;;5034799;28;20425;-91
2022/02/26 06:28:32;;;;;;;18.77;2.75;;;;;;;;;;5031037;28;20056;-93
2022/02/26 06:30:57;;;;;;;19.88;2.63;;;;;;;;;;5025602;28;20017;-91
2022/02/26 06:33:22;;;;;;;26.77;3.33;;;;;;;;;;5025081;28;20025;-91
2022/02/26 06:35:48;;;;;;;14.35;2.53;;;;;;;;;;5025683;28;20028;-89
2022/02/26 06:38:13;;;;;;;13.65;2.67;;;;;;;;;;5026100;28;20022;-91
2022/02/26 06:40:38;;;;;;;22.40;2.88;;;;;;;;;;5025485;28;20026;-92
2022/02/26 06:43:04;;;;;;;23.08;3.13;;;;;;;;;;5026371;28;20030;-93
2022/02/26 06:45:29;;;;;;;17.58;3.05;;;;;;;;;;5027541;28;20025;-93
2022/02/26 06:47:58;;;;;;;24.83;3.25;;;;;;;;;;5025414;28;20304;-92
2022/02/26 06:50:23;;;;;;;17.85;2.55;;;;;;;;;;5026011;28;20018;-90
2022/02/26 06:52:48;;;;;;;17.80;2.90;;;;;;;;;;5025470;28;20034;-93
2022/02/26 06:55:14;;;;;;;12.10;3.03;;;;;;;;;;5024831;28;20018;-92
2022/02/26 06:57:40;;;;;;;20.05;2.78;;;;;;;;;;5023126;28;20030;-92
2022/02/26 07:00:06;;;;;;;14.95;2.80;;;;;;;;;;5020811;28;20018;-92
2022/02/26 07:02:31;;;;;;;18.15;2.38;;;;;;;;;;5022101;28;20044;-92
2022/02/26 07:04:57;;;;;;;23.20;2.58;;;;;;;;;;5024575;28;20117;-91
2022/02/26 07:07:22;;;;;;;12.35;2.38;;;;;;;;;;5031159;28;20370;-91
2022/02/26 07:09:48;;;;;;;17.23;2.78;;;;;;;;;;5030671;28;20022;-91
2022/02/26 07:12:16;;;;;;;19.55;3.45;;;;;;;;;;5029456;28;20022;-93
2022/02/26 07:14:41;;;;;;;19.67;2.75;;;;;;;;;;5029843;28;20040;-94
2022/02/26 07:17:07;;;;;;;21.25;3.00;;;;;;;;;;5028753;28;20018;-92
2022/02/26 07:19:32;;;;;;;13.98;2.70;;;;;;;;;;5022818;28;20026;-93
2022/02/26 07:21:59;;;;;;;14.18;3.75;;;;;;;;;;5019981;28;20038;-92
2022/02/26 07:24:25;;;;;;;18.50;2.50;;;;;;;;;;5022863;28;20032;-91
2022/02/26 07:26:50;;;;;;;30.95;3.92;;;;;;;;;;5019241;28;20083;-92
2022/02/26 07:29:16;;;;;;;28.98;9.40;;;;;;;;;;5021678;28;20469;-93
2022/02/26 07:31:41;;;;;;;25.83;4.95;;;;;;;;;;5017126;28;20033;-93
2022/02/26 07:34:06;;;;;;;20.02;2.88;;;;;;;;;;5017643;28;20026;-92
2022/02/26 07:36:32;;;;;;;20.48;3.40;;;;;;;;;;5020514;28;20100;-92
2022/02/26 07:38:57;;;;;;;16.40;2.72;;;;;;;;;;5019923;28;20022;-93
2022/02/26 07:41:22;;;;;;;20.67;2.92;;;;;;;;;;5018027;28;20032;-94
2022/02/26 07:43:47;;;;;;;32.67;3.95;;;;;;;;;;5016279;28;20030;-93
2022/02/26 07:46:13;;;;;;;18.60;2.90;;;;;;;;;;5017867;28;20106;-90
2022/02/26 07:48:38;;;;;;;19.85;2.67;;;;;;;;;;5018003;28;20018;-92
2022/02/26 07:51:04;;;;;;;16.48;2.88;;;;;;;;;;5017308;28;20022;-93
2022/02/26 07:53:29;;;;;;;17.65;3.45;;;;;;;;;;5016389;28;20057;-93
2022/02/26 07:55:54;;;;;;;20.02;3.28;;;;;;;;;;5018161;28;20029;-92
2022/02/26 07:58:21;;;;;;;29.58;3.33;;;;;;;;;;5017812;28;20033;-91
2022/02/26 08:00:46;;;;;;;30.08;3.30;;;;;;;;;;5017437;28;20026;-94
2022/02/26 08:03:12;;;;;;;26.02;3.55;;;;;;;;;;5018175;28;20405;-93
2022/02/26 08:05:37;;;;;;;27.52;3.95;;;;;;;;;;5021700;28;20128;-93
2022/02/26 08:08:02;;;;;;;19.70;3.08;;;;;;;;;;5020745;28;20017;-92
2022/02/26 08:10:30;;;;;;;18.92;3.00;;;;;;;;;;5016574;28;20029;-93
2022/02/26 08:12:56;;;;;;;10.52;2.35;;;;;;;;;;5015776;28;20036;-94
2022/02/26 08:15:23;;;;;;;21.80;3.45;;;;;;;;;;5016136;28;20032;-93
2022/02/26 08:17:48;;;;;;;22.00;3.95;;;;;;;;;;5016804;28;20049;-93
2022/02/26 08:20:15;;;;;;;17.58;2.78;;;;;;;;;;5016759;28;20024;-92
2022/02/26 08:22:40;;;;;;;17.60;3.45;;;;;;;;;;5016092;28;20025;-92
2022/02/26 08:25:06;;;;;;;15.13;2.72;;;;;;;;;;5014788;28;20021;-93
2022/02/26 08:27:31;;;;;;;13.20;3.63;;;;;;;;;;5016377;28;20022;-95
2022/02/26 08:29:57;;;;;;;26.00;2.80;;;;;;;;;;5014391;28;20021;-94
2022/02/26 08:32:22;;;;;;;18.98;2.40;;;;;;;;;;5014674;28;20029;-93
2022/02/26 08:34:48;;;;;;;17.40;2.65;;;;;;;;;;5014523;28;20029;-92
2022/02/26 08:37:13;;;;;;;23.48;3.35;;;;;;;;;;5016152;28;20028;-93
2022/02/26 08:39:39;;;;;;;12.98;3.75;;;;;;;;;;5016056;28;20045;-92
2022/02/26 08:42:07;;;;;;;19.20;2.95;;;;;;;;;;5013891;28;20028;-92
2022/02/26 08:44:32;;;;;;;18.35;2.70;;;;;;;;;;5014536;28;20013;-94
2022/02/26 08:46:59;;;;;;;14.68;2.53;;;;;;;;;;5014106;28;20028;-94
2022/02/26 08:49:24;;;;;;;14.50;2.97;;;;;;;;;;5014124;28;20487;-93
2022/02/26 08:51:49;;;;;;;22.70;2.92;;;;;;;;;;5015648;28;20028;-92
2022/02/26 08:54:15;;;;;;;17.08;3.53;;;;;;;;;;5016371;28;20025;-94
2022/02/26 08:56:40;;;;;;;13.95;2.50;;;;;;;;;;5015180;28;20025;-93
2022/02/26 08:59:05;;;;;;;17.17;3.55;;;;;;;;;;5014140;28;20095;-89
2022/02/26 09:01:31;;;;;;;19.48;4.30;;;;;;;;;;5015067;28;20447;-93
2022/02/26 09:03:57;;;;;;;16.33;3.03;;;;;;;;;;5015197;28;20392;-91
2022/02/26 09:06:23;;;;;;;17.25;2.85;;;;;;;;;;5015224;28;20028;-92
2022/02/26 09:08:48;;;;;;;16.75;2.67;;;;;;;;;;5014410;28;20109;-93
2022/02/26 09:11:13;;;;;;;15.38;2.63;;;;;;;;;;5015778;28;20021;-94
2022/02/26 09:13:42;;;;;;;17.92;3.00;;;;;;;;;;5016019;28;20196;-92
2022/02/26 09:16:07;;;;;;;;;;;;;;;;;;5019281;28;20100;-92
2022/02/26 09:18:32;;;;;;;16.75;3.10;;;;;;;;;;5016568;28;20368;-93
2022/02/26 09:20:58;;;;;;;23.27;3.40;;;;;;;;;;5014523;28;20018;-93
2022/02/26 09:23:23;;;;;;;14.18;2.85;;;;;;;;;;5013811;28;20033;-93
2022/02/26 09:25:48;;;;;;;18.80;3.00;;;;;;;;;;5013528;28;20114;-94
2022/02/26 09:28:14;;;;;;;19.60;3.33;;;;;;;;;;5014678;28;20018;-93
2022/02/26 09:30:39;;;;;;;12.40;2.47;;;;;;;;;;5013451;28;20030;-93
2022/02/26 09:33:05;;;;;;;15.10;3.17;;;;;;;;;;5013275;28;20033;-92
2022/02/26 09:35:30;;;;;;;18.85;2.67;;;;;;;;;;5015269;28;20080;-90
2022/02/26 09:37:55;;;;;;;14.50;3.40;;;;;;;;;;5013990;28;20539;-93
2022/02/26 09:40:21;;;;;;;19.00;3.15;;;;;;;;;;5015073;28;20033;-92
2022/02/26 09:42:46;;;;;;;14.23;3.00;;;;;;;;;;5014953;28;20022;-94
2022/02/26 09:45:12;;;;;;;18.02;3.15;;;;;;;;;;5014856;28;20037;-94
2022/02/26 09:47:37;;;;;;;12.23;3.08;;;;;;;;;;5012652;28;20449;-92
2022/02/26 09:50:04;;;;;;;21.25;3.38;;;;;;;;;;5013311;28;20076;-93
2022/02/26 09:52:30;;;;;;;18.92;3.47;;;;;;;;;;5012263;28;20033;-94
2022/02/26 09:54:55;;;;;;;15.05;2.72;;;;;;;;;;5013915;28;20030;-93
2022/02/26 09:57:21;;;;;;;16.13;3.03;;;;;;;;;;5012372;28;20033;-93
2022/02/26 09:59:47;;;;;;;16.63;2.97;;;;;;;;;;5012811;28;20061;-94
2022/02/26 10:02:12;;;;;;;20.27;3.35;;;;;;;;;;5011728;28;20021;-93
2022/02/26 10:04:38;;;;;;;13.98;2.85;;;;;;;;;;5012118;28;20018;-92
2022/02/26 10:07:11;;;;;;;16.35;3.00;;;;;;;;;;5012159;28;20494;-95
2022/02/26 10:09:37;;;;;;;12.73;2.58;;;;;;;;;;5013790;28;20474;-93
2022/02/26 10:12:03;;;;;;;10.82;2.20;;;;;;;;;;5015851;28;20022;-93
2022/02/26 10:14:34;;;;;;;18.13;2.92;;;;;;;;;;5020209;28;20032;-93
2022/02/26 10:16:59;;;;;;;20.48;3.50;;;;;;;;;;5021127;28;20087;-94
2022/02/26 10:19:26;;;;;;;12.75;3.33;;;;;;;;;;5018669;28;20435;-92
2022/02/26 10:21:53;;;;;;;15.40;2.92;;;;;;;;;;5012256;28;20033;-93
2022/02/26 10:24:18;;;;;;;16.83;2.83;;;;;;;;;;5012663;28;20037;-92
2022/02/26 10:26:48;;;;;;;10.95;3.08;;;;;;;;;;5014076;28;20156;-93
2022/02/26 10:29:16;;;;;;;16.98;3.28;;;;;;;;;;5012547;28;20037;-94
2022/02/26 10:31:46;;;;;;;17.45;2.60;;;;;;;;;;5013393;28;20113;-94
2022/02/26 10:34:25;;;;;;;18.40;2.78;;;;;;;;;;5012301;28;20022;-94
2022/02/26 10:37:09;;;;;;;13.15;2.30;;;;;;;;;;5012210;28;20018;-91
2022/02/26 10:39:38;;;;;;;15.75;2.88;;;;;;;;;;5011987;28;20596;-92
2022/02/26 10:42:04;;;;;;;15.43;3.33;;;;;;;;;;5011807;28;20036;-91
2022/02/26 10:44:30;;;;;;;13.32;3.10;;;;;;;;;;5013305;28;20014;-93
2022/02/26 10:47:28;;;;;;;24.98;3.65;;;;;;;;;;5012069;28;20052;-94
2022/02/26 10:49:53;;;;;;;10.80;2.50;;;;;;;;;;5005092;28;20489;-93
2022/02/26 10:52:19;;;;;;;18.20;2.80;;;;;;;;;;5013486;28;20026;-94
2022/02/26 10:54:50;;;;;;;17.58;2.85;;;;;;;;;;5014367;28;20022;-93
2022/02/26 10:57:15;;;;;;;19.42;4.05;;;;;;;;;;5014087;28;20014;-91
2022/02/26 10:59:42;;;;;;;19.65;3.05;;;;;;;;;;5013036;28;20049;-92
2022/02/26 11:02:11;;;;;;;8.93;2.60;;;;;;;;;;5012964;28;20018;-94
2022/02/26 11:04:37;;;;;;;16.88;2.95;;;;;;;;;;5013913;28;20018;-94
2022/02/26 11:07:03;;;;;;;12.30;2.78;;;;;;;;;;5012780;28;20064;-94
2022/02/26 11:09:29;;;;;;;8.35;2.42;;;;;;;;;;5013899;28;20160;-94
2022/02/26 11:11:59;;;;;;;14.98;3.10;;;;;;;;;;5022701;28;20516;-94
2022/02/26 11:14:25;;;;;;;12.57;2.28;;;;;;;;;;5025048;28;20018;-93
2022/02/26 11:16:56;;;;;;;22.40;3.30;;;;;;;;;;5026090;28;20021;-93
2022/02/26 11:19:23;;;;;;;14.13;3.13;;;;;;;;;;5024032;28;20017;-93
2022/02/26 11:21:48;;;;;;;24.27;4.43;;;;;;;;;;5023655;28;20032;-93
2022/02/26 11:24:16;;;;;;;18.85;3.20;;;;;;;;;;5021211;28;20017;-93
2022/02/26 11:26:42;;;;;;;17.25;2.55;;;;;;;;;;5019635;28;20084;-92
2022/02/26 11:29:07;;;;;;;10.15;2.97;;;;;;;;;;5034108;23;20080;-78
2022/02/26 11:31:39;;;;;;;18.45;3.05;;;;;;;;;;5036632;28;20060;-78
2022/02/26 11:34:05;;;;;;;14.27;2.72;;;;;;;;;;5037515;28;20173;-79
2022/02/26 11:36:47;;;;;;;13.98;2.97;;;;;;;;;;5040462;28;20083;-80
2022/02/26 11:39:20;;;;;;;18.85;3.30;;;;;;;;;;5051802;28;20041;-78
2022/02/26 11:41:45;;;;;;;19.38;3.22;;;;;;;;;;5055912;28;20029;-77
2022/02/26 11:44:11;;;;;;;16.52;2.80;;;;;;;;;;5055439;28;20020;-77
2022/02/26 11:46:39;;;;;;;16.67;2.67;;;;;;;;;;5050747;28;20017;-78
2022/02/26 11:49:27;;;;;;;14.35;2.67;;;;;;;;;;5042508;28;20100;-77
2022/02/26 11:51:53;;;;;;;18.80;3.42;;;;;;;;;;5032844;28;20025;-78
2022/02/26 11:54:21;;;;;;;17.75;2.65;;;;;;;;;;5036796;28;20039;-78
2022/02/26 11:56:54;;;;;;;16.73;2.85;;;;;;;;;;5036618;28;20022;-77
2022/02/26 11:59:39;;;;;;;10.82;2.60;;;;;;;;;;5037730;28;20032;-77
2022/02/26 12:02:08;;;;;;;16.55;2.47;;;;;;;;;;5033685;28;20028;-78
2022/02/26 12:04:43;;;;;;;14.23;3.13;;;;;;;;;;5034942;28;20029;-79
2022/02/26 12:07:08;;;;;;;9.07;2.25;;;;;;;;;;5034850;28;20028;-79
2022/02/26 12:09:53;;;;;;;12.73;2.15;;;;;;;;;;5033400;28;20010;-79
2022/02/26 12:12:34;;;;;;;11.13;2.58;;;;;;;;;;5033979;28;20025;-78
2022/02/26 12:14:59;;;;;;;16.38;4.18;;;;;;;;;;5034786;28;20032;-79
2022/02/26 12:17:24;;;;;;;15.38;3.67;;;;;;;;;;5034459;28;20408;-80
2022/02/26 12:19:52;;;;;;;9.52;2.40;;;;;;;;;;5034275;28;20033;-79
2022/02/26 12:22:18;;;;;;;12.10;2.17;;;;;;;;;;5033991;28;20032;-77
2022/02/26 12:24:47;;;;;;;13.75;2.20;;;;;;;;;;5034604;28;20017;-78
2022/02/26 12:27:12;;;;;;;11.05;2.65;;;;;;;;;;5034576;28;20024;-78
2022/02/26 12:29:43;;;;;;;12.95;2.80;;;;;;;;;;5032938;28;20404;-79
2022/02/26 12:32:20;;;;;;;14.85;2.08;;;;;;;;;;5033922;28;20099;-79
2022/02/26 12:34:53;;;;;;;12.93;2.20;;;;;;;;;;5034697;28;20076;-80
2022/02/26 12:37:20;;;;;;;13.73;3.22;;;;;;;;;;5033431;28;20022;-77
2022/02/26 12:39:50;;;;;;;14.15;2.28;;;;;;;;;;5034421;28;20021;-80
2022/02/26 12:42:20;;;;;;;13.23;2.20;;;;;;;;;;5034326;28;20448;-79
2022/02/26 12:44:45;;;;;;;8.80;2.50;;;;;;;;;;5034356;28;20071;-79
2022/02/26 12:47:10;;;;;;;11.85;2.83;;;;;;;;;;5034421;28;20049;-78
2022/02/26 12:49:35;;;;;;;8.60;2.17;;;;;;;;;;5034466;28;20021;-79
2022/02/26 12:52:03;;;;;;;11.75;2.10;;;;;;;;;;5034940;28;20021;-78
2022/02/26 12:54:32;;;;;;;14.25;2.60;;;;;;;;;;5036671;28;20021;-78
2022/02/26 12:56:58;;;;;;;17.10;2.13;;;;;;;;;;5036643;28;20121;-78
2022/02/26 12:59:23;;;;;;;16.42;4.60;;;;;;;;;;5036591;28;20025;-78
2022/02/26 13:01:50;;;;;;;12.40;3.50;;;;;;;;;;5034857;28;20068;-79
2022/02/26 13:04:17;;;;;;;19.27;2.85;;;;;;;;;;5034273;28;20052;-78
2022/02/26 13:06:52;;;;;;;11.27;1.95;;;;;;;;;;5032913;28;20017;-79
2022/02/26 13:09:18;;;;;;;11.07;2.28;;;;;;;;;;5033900;28;20025;-79
2022/02/26 13:11:52;;;;;;;10.00;2.35;;;;;;;;;;5033613;28;20017;-79
2022/02/26 13:14:18;;;;;;;14.32;2.67;;;;;;;;;;5033927;28;20029;-78
2022/02/26 13:16:54;;;;;;;14.55;3.08;;;;;;;;;;5032164;28;20437;-79
2022/02/26 13:19:19;;;;;;;11.93;2.60;;;;;;;;;;5048533;28;20555;-78
2022/02/26 13:21:44;;;;;;;14.88;3.33;;;;;;;;;;5033010;28;20018;-80
2022/02/26 13:24:09;;;;;;;9.40;2.08;;;;;;;;;;5033467;28;20025;-79
2022/02/26 13:26:35;;;;;;;9.90;2.28;;;;;;;;;;5031773;28;20040;-79
2022/02/26 13:29:10;;;;;;;17.20;2.83;;;;;;;;;;5033063;28;20468;-80
2022/02/26 13:31:36;;;;;;;14.70;2.65;;;;;;;;;;5031622;28;20033;-79
2022/02/26 13:34:15;;;;;;;11.25;2.22;;;;;;;;;;5030591;28;20026;-78
2022/02/26 13:36:41;;;;;;;10.48;2.60;;;;;;;;;;5033134;28;20024;-80
2022/02/26 13:39:06;;;;;;;13.65;2.75;;;;;;;;;;5032754;28;20013;-78
2022/02/26 13:41:33;;;;;;;11.57;2.92;;;;;;;;;;5032788;28;20017;-80
2022/02/26 13:43:59;;;;;;;8.52;2.17;;;;;;;;;;5032372;28;20507;-78
2022/02/26 13:46:24;;;;;;;10.07;2.88;;;;;;;;;;5032766;28;20097;-79
2022/02/26 13:48:49;;;;;;;6.07;1.58;;;;;;;;;;5032832;28;20493;-80
2022/02/26 13:51:14;;;;;;;11.57;3.60;;;;;;;;;;5032748;28;20484;-78
2022/02/26 13:53:40;;;;;;;13.73;4.43;;;;;;;;;;5032403;28;20083;-79
2022/02/26 13:56:05;;;;;;;14.35;2.95;;;;;;;;;;5032760;28;20021;-78
2022/02/26 13:58:35;;;;;;;13.70;3.42;;;;;;;;;;5031027;28;20037;-78
2022/02/26 14:01:04;;;;;;;14.18;3.35;;;;;;;;;;5032708;28;20049;-78
2022/02/26 14:03:29;;;;;;;15.68;2.50;;;;;;;;;;5032068;28;20014;-78
2022/02/26 14:05:55;;;;;;;13.25;2.65;;;;;;;;;;5031105;28;20377;-77
2022/02/26 14:08:20;;;;;;;10.57;2.25;;;;;;;;;;5032240;28;20247;-78
2022/02/26 14:10:46;;;;;;;13.13;2.60;;;;;;;;;;5032212;28;20106;-79
2022/02/26 14:13:15;;;;;;;9.75;2.35;;;;;;;;;;5031738;28;20262;-78
2022/02/26 14:15:44;;;;;;;10.68;2.67;;;;;;;;;;5032322;28;20352;-78
2022/02/26 14:18:10;;;;;;;12.02;2.45;;;;;;;;;;5032344;28;20029;-80
2022/02/26 14:20:35;;;;;;;8.75;1.98;;;;;;;;;;5032430;28;20028;-79
2022/02/26 14:23:01;;;;;;;22.93;4.50;;;;;;;;;;5031802;28;20116;-80
2022/02/26 14:25:27;;;;;;;11.32;2.85;;;;;;;;;;5032020;28;20014;-79
2022/02/26 14:27:52;;;;;;;16.52;2.70;;;;;;;;;;5030811;28;20075;-80